sensor_id;sensor_type;location;lat;lon;timestamp;P1;durP1;ratioP1;P2;durP2;ratioP2
64667;SDS011;51077;42.716;23.344;2023-03-11T00:00:56;10.17;;;6.40;;
64667;SDS011;51077;42.716;23.344;2023-03-11T00:03:22;10.37;;;6.20;;
64667;SDS011;51077;42.716;23.344;2023-03-11T00:05:48;8.60;;;5.80;;
64667;SDS011;51077;42.716;23.344;2023-03-11T00:08:18;7.47;;;5.38;;
64667;SDS011;51077;42.716;23.344;2023-03-11T00:10:46;7.07;;;4.28;;
64667;SDS011;51077;42.716;23.344;2023-03-11T00:13:15;7.88;;;5.07;;
64667;SDS011;51077;42.716;23.344;2023-03-11T00:15:41;7.03;;;4.47;;
64667;SDS011;51077;42.716;23.344;2023-03-11T00:18:08;6.93;;;4.65;;
64667;SDS011;51077;42.716;23.344;2023-03-11T00:20:35;6.00;;;3.50;;
64667;SDS011;51077;42.716;23.344;2023-03-11T00:23:02;6.32;;;4.10;;
64667;SDS011;51077;42.716;23.344;2023-03-11T00:25:29;5.40;;;3.20;;
64667;SDS011;51077;42.716;23.344;2023-03-11T00:27:56;6.75;;;3.47;;
64667;SDS011;51077;42.716;23.344;2023-03-11T00:30:22;6.45;;;3.22;;
64667;SDS011;51077;42.716;23.344;2023-03-11T00:32:51;6.28;;;3.25;;
64667;SDS011;51077;42.716;23.344;2023-03-11T00:35:20;5.53;;;3.28;;
64667;SDS011;51077;42.716;23.344;2023-03-11T00:37:51;5.00;;;3.08;;
64667;SDS011;51077;42.716;23.344;2023-03-11T00:40:20;5.43;;;3.35;;
64667;SDS011;51077;42.716;23.344;2023-03-11T00:42:49;6.30;;;2.78;;
64667;SDS011;51077;42.716;23.344;2023-03-11T00:45:15;5.25;;;2.70;;
64667;SDS011;51077;42.716;23.344;2023-03-11T00:47:40;4.03;;;2.07;;
64667;SDS011;51077;42.716;23.344;2023-03-11T00:50:06;4.10;;;2.13;;
64667;SDS011;51077;42.716;23.344;2023-03-11T00:52:33;4.20;;;2.33;;
64667;SDS011;51077;42.716;23.344;2023-03-11T00:54:59;4.20;;;1.90;;
64667;SDS011;51077;42.716;23.344;2023-03-11T00:57:24;4.10;;;2.00;;
64667;SDS011;51077;42.716;23.344;2023-03-11T00:59:53;3.95;;;2.00;;
64667;SDS011;51077;42.716;23.344;2023-03-11T01:02:18;4.13;;;2.17;;
64667;SDS011;51077;42.716;23.344;2023-03-11T01:04:44;4.00;;;1.90;;
64667;SDS011;51077;42.716;23.344;2023-03-11T01:07:09;3.53;;;1.87;;
64667;SDS011;51077;42.716;23.344;2023-03-11T01:09:34;4.40;;;2.10;;
64667;SDS011;51077;42.716;23.344;2023-03-11T01:12:00;3.87;;;1.97;;
64667;SDS011;51077;42.716;23.344;2023-03-11T01:14:25;3.73;;;2.07;;
64667;SDS011;51077;42.716;23.344;2023-03-11T01:16:51;3.97;;;1.50;;
64667;SDS011;51077;42.716;23.344;2023-03-11T01:19:17;3.50;;;1.73;;
64667;SDS011;51077;42.716;23.344;2023-03-11T01:21:43;4.73;;;1.97;;
64667;SDS011;51077;42.716;23.344;2023-03-11T01:24:08;4.40;;;1.90;;
64667;SDS011;51077;42.716;23.344;2023-03-11T01:26:34;2.90;;;1.50;;
64667;SDS011;51077;42.716;23.344;2023-03-11T01:28:59;5.47;;;1.73;;
64667;SDS011;51077;42.716;23.344;2023-03-11T01:31:24;3.20;;;1.90;;
64667;SDS011;51077;42.716;23.344;2023-03-11T01:33:50;2.70;;;1.10;;
64667;SDS011;51077;42.716;23.344;2023-03-11T01:36:15;4.10;;;1.50;;
64667;SDS011;51077;42.716;23.344;2023-03-11T01:38:41;5.10;;;2.10;;
64667;SDS011;51077;42.716;23.344;2023-03-11T01:41:06;3.23;;;1.83;;
64667;SDS011;51077;42.716;23.344;2023-03-11T01:46:17;3.15;;;1.50;;
64667;SDS011;51077;42.716;23.344;2023-03-11T01:48:54;5.28;;;2.15;;
64667;SDS011;51077;42.716;23.344;2023-03-11T01:51:28;4.88;;;2.15;;
64667;SDS011;51077;42.716;23.344;2023-03-11T01:54:06;3.38;;;1.75;;
64667;SDS011;51077;42.716;23.344;2023-03-11T01:56:35;4.82;;;2.10;;
64667;SDS011;51077;42.716;23.344;2023-03-11T01:59:03;3.58;;;1.83;;
64667;SDS011;51077;42.716;23.344;2023-03-11T02:01:30;4.18;;;2.08;;
64667;SDS011;51077;42.716;23.344;2023-03-11T02:03:56;4.23;;;2.37;;
64667;SDS011;51077;42.716;23.344;2023-03-11T02:06:22;3.77;;;1.87;;
64667;SDS011;51077;42.716;23.344;2023-03-11T02:08:48;4.43;;;2.13;;
64667;SDS011;51077;42.716;23.344;2023-03-11T02:11:16;3.95;;;1.70;;
64667;SDS011;51077;42.716;23.344;2023-03-11T02:13:44;3.83;;;1.67;;
64667;SDS011;51077;42.716;23.344;2023-03-11T02:16:11;4.35;;;1.95;;
64667;SDS011;51077;42.716;23.344;2023-03-11T02:18:38;3.97;;;2.35;;
64667;SDS011;51077;42.716;23.344;2023-03-11T02:21:05;3.40;;;1.57;;
64667;SDS011;51077;42.716;23.344;2023-03-11T02:26:57;3.00;;;1.58;;
64667;SDS011;51077;42.716;23.344;2023-03-11T02:29:23;2.80;;;1.55;;
64667;SDS011;51077;42.716;23.344;2023-03-11T02:31:50;3.53;;;1.80;;
64667;SDS011;51077;42.716;23.344;2023-03-11T02:37:13;4.03;;;1.70;;
64667;SDS011;51077;42.716;23.344;2023-03-11T02:39:47;3.03;;;1.60;;
64667;SDS011;51077;42.716;23.344;2023-03-11T02:42:16;3.47;;;1.45;;
64667;SDS011;51077;42.716;23.344;2023-03-11T02:44:43;3.28;;;1.90;;
64667;SDS011;51077;42.716;23.344;2023-03-11T02:47:11;4.65;;;1.38;;
64667;SDS011;51077;42.716;23.344;2023-03-11T02:49:36;2.93;;;1.40;;
64667;SDS011;51077;42.716;23.344;2023-03-11T02:52:02;3.30;;;1.60;;
64667;SDS011;51077;42.716;23.344;2023-03-11T02:54:28;3.80;;;1.40;;
64667;SDS011;51077;42.716;23.344;2023-03-11T02:56:53;2.17;;;1.10;;
64667;SDS011;51077;42.716;23.344;2023-03-11T02:59:18;2.63;;;1.13;;
64667;SDS011;51077;42.716;23.344;2023-03-11T03:01:44;3.13;;;1.83;;
64667;SDS011;51077;42.716;23.344;2023-03-11T03:04:09;2.50;;;1.33;;
64667;SDS011;51077;42.716;23.344;2023-03-11T03:06:35;3.57;;;1.30;;
64667;SDS011;51077;42.716;23.344;2023-03-11T03:09:00;3.27;;;1.10;;
64667;SDS011;51077;42.716;23.344;2023-03-11T03:11:25;2.23;;;0.97;;
64667;SDS011;51077;42.716;23.344;2023-03-11T03:13:51;3.53;;;0.90;;
64667;SDS011;51077;42.716;23.344;2023-03-11T03:16:16;2.87;;;1.10;;
64667;SDS011;51077;42.716;23.344;2023-03-11T03:18:42;2.93;;;1.27;;
64667;SDS011;51077;42.716;23.344;2023-03-11T03:21:07;2.63;;;1.13;;
64667;SDS011;51077;42.716;23.344;2023-03-11T03:23:33;3.70;;;1.20;;
64667;SDS011;51077;42.716;23.344;2023-03-11T03:25:59;5.05;;;1.40;;
64667;SDS011;51077;42.716;23.344;2023-03-11T03:28:25;3.83;;;1.30;;
64667;SDS011;51077;42.716;23.344;2023-03-11T03:30:51;3.40;;;1.00;;
64667;SDS011;51077;42.716;23.344;2023-03-11T03:33:16;3.97;;;1.20;;
64667;SDS011;51077;42.716;23.344;2023-03-11T03:35:42;2.50;;;1.10;;
64667;SDS011;51077;42.716;23.344;2023-03-11T03:38:09;3.50;;;1.25;;
64667;SDS011;51077;42.716;23.344;2023-03-11T03:40:34;2.20;;;1.10;;
64667;SDS011;51077;42.716;23.344;2023-03-11T03:43:00;2.80;;;1.10;;
64667;SDS011;51077;42.716;23.344;2023-03-11T03:45:25;2.73;;;1.00;;
64667;SDS011;51077;42.716;23.344;2023-03-11T03:47:50;3.70;;;1.20;;
64667;SDS011;51077;42.716;23.344;2023-03-11T03:50:16;2.73;;;1.10;;
64667;SDS011;51077;42.716;23.344;2023-03-11T03:52:41;2.70;;;1.07;;
64667;SDS011;51077;42.716;23.344;2023-03-11T03:55:07;3.87;;;1.43;;
64667;SDS011;51077;42.716;23.344;2023-03-11T03:57:32;2.30;;;1.10;;
64667;SDS011;51077;42.716;23.344;2023-03-11T03:59:58;2.53;;;1.10;;
64667;SDS011;51077;42.716;23.344;2023-03-11T04:02:23;3.07;;;1.13;;
64667;SDS011;51077;42.716;23.344;2023-03-11T04:04:49;3.37;;;1.10;;
64667;SDS011;51077;42.716;23.344;2023-03-11T04:07:14;4.53;;;1.33;;
64667;SDS011;51077;42.716;23.344;2023-03-11T04:09:40;2.83;;;1.23;;
64667;SDS011;51077;42.716;23.344;2023-03-11T04:12:07;4.38;;;1.20;;
64667;SDS011;51077;42.716;23.344;2023-03-11T04:14:37;2.50;;;1.40;;
64667;SDS011;51077;42.716;23.344;2023-03-11T04:17:03;3.13;;;1.10;;
64667;SDS011;51077;42.716;23.344;2023-03-11T04:19:28;3.20;;;1.17;;
64667;SDS011;51077;42.716;23.344;2023-03-11T04:21:53;2.87;;;1.20;;
64667;SDS011;51077;42.716;23.344;2023-03-11T04:24:19;2.70;;;1.30;;
64667;SDS011;51077;42.716;23.344;2023-03-11T04:26:44;2.47;;;1.27;;
64667;SDS011;51077;42.716;23.344;2023-03-11T04:29:09;2.30;;;1.20;;
64667;SDS011;51077;42.716;23.344;2023-03-11T04:31:35;2.90;;;1.20;;
64667;SDS011;51077;42.716;23.344;2023-03-11T04:34:00;2.60;;;1.20;;
64667;SDS011;51077;42.716;23.344;2023-03-11T04:36:26;2.37;;;1.03;;
64667;SDS011;51077;42.716;23.344;2023-03-11T04:38:51;2.57;;;0.73;;
64667;SDS011;51077;42.716;23.344;2023-03-11T04:41:17;3.50;;;1.20;;
64667;SDS011;51077;42.716;23.344;2023-03-11T04:43:42;3.97;;;0.87;;
64667;SDS011;51077;42.716;23.344;2023-03-11T04:46:08;1.93;;;1.00;;
64667;SDS011;51077;42.716;23.344;2023-03-11T04:48:33;2.00;;;0.90;;
64667;SDS011;51077;42.716;23.344;2023-03-11T04:50:59;1.17;;;0.60;;
64667;SDS011;51077;42.716;23.344;2023-03-11T04:53:24;1.60;;;0.80;;
64667;SDS011;51077;42.716;23.344;2023-03-11T04:55:49;4.10;;;0.87;;
64667;SDS011;51077;42.716;23.344;2023-03-11T04:58:16;1.75;;;0.77;;
64667;SDS011;51077;42.716;23.344;2023-03-11T05:00:41;1.93;;;0.80;;
64667;SDS011;51077;42.716;23.344;2023-03-11T05:03:07;1.60;;;0.63;;
64667;SDS011;51077;42.716;23.344;2023-03-11T05:05:32;1.73;;;0.77;;
64667;SDS011;51077;42.716;23.344;2023-03-11T05:07:58;1.83;;;0.80;;
64667;SDS011;51077;42.716;23.344;2023-03-11T05:10:23;2.30;;;0.90;;
64667;SDS011;51077;42.716;23.344;2023-03-11T05:12:49;2.23;;;1.07;;
64667;SDS011;51077;42.716;23.344;2023-03-11T05:15:15;7.55;;;2.60;;
64667;SDS011;51077;42.716;23.344;2023-03-11T05:17:41;5.00;;;2.33;;
64667;SDS011;51077;42.716;23.344;2023-03-11T05:20:07;5.13;;;2.23;;
64667;SDS011;51077;42.716;23.344;2023-03-11T05:22:33;5.47;;;2.30;;
64667;SDS011;51077;42.716;23.344;2023-03-11T05:24:58;5.87;;;2.57;;
64667;SDS011;51077;42.716;23.344;2023-03-11T05:27:24;5.00;;;2.30;;
64667;SDS011;51077;42.716;23.344;2023-03-11T05:29:49;4.03;;;1.70;;
64667;SDS011;51077;42.716;23.344;2023-03-11T05:32:15;8.03;;;3.73;;
64667;SDS011;51077;42.716;23.344;2023-03-11T05:34:40;5.33;;;2.50;;
64667;SDS011;51077;42.716;23.344;2023-03-11T05:37:06;5.83;;;2.50;;
64667;SDS011;51077;42.716;23.344;2023-03-11T05:39:31;6.50;;;2.73;;
64667;SDS011;51077;42.716;23.344;2023-03-11T05:41:57;6.20;;;2.05;;
64667;SDS011;51077;42.716;23.344;2023-03-11T05:44:23;4.83;;;2.23;;
64667;SDS011;51077;42.716;23.344;2023-03-11T05:46:48;4.63;;;2.33;;
64667;SDS011;51077;42.716;23.344;2023-03-11T05:49:13;5.47;;;2.13;;
64667;SDS011;51077;42.716;23.344;2023-03-11T05:51:39;4.30;;;1.90;;
64667;SDS011;51077;42.716;23.344;2023-03-11T05:54:04;4.03;;;1.90;;
64667;SDS011;51077;42.716;23.344;2023-03-11T05:56:35;4.30;;;1.92;;
64667;SDS011;51077;42.716;23.344;2023-03-11T05:59:01;4.10;;;1.60;;
64667;SDS011;51077;42.716;23.344;2023-03-11T06:01:26;3.60;;;1.63;;
64667;SDS011;51077;42.716;23.344;2023-03-11T06:03:52;6.73;;;1.47;;
64667;SDS011;51077;42.716;23.344;2023-03-11T06:06:17;3.97;;;1.60;;
64667;SDS011;51077;42.716;23.344;2023-03-11T06:08:43;3.93;;;1.57;;
64667;SDS011;51077;42.716;23.344;2023-03-11T06:11:13;3.00;;;1.30;;
64667;SDS011;51077;42.716;23.344;2023-03-11T06:13:39;4.33;;;1.67;;
64667;SDS011;51077;42.716;23.344;2023-03-11T06:16:04;3.73;;;1.30;;
64667;SDS011;51077;42.716;23.344;2023-03-11T06:18:30;3.67;;;1.52;;
64667;SDS011;51077;42.716;23.344;2023-03-11T06:20:57;2.50;;;1.23;;
64667;SDS011;51077;42.716;23.344;2023-03-11T06:23:23;2.90;;;1.13;;
64667;SDS011;51077;42.716;23.344;2023-03-11T06:28:24;2.65;;;1.30;;
64667;SDS011;51077;42.716;23.344;2023-03-11T06:30:50;4.93;;;2.13;;
64667;SDS011;51077;42.716;23.344;2023-03-11T06:33:16;5.17;;;1.90;;
64667;SDS011;51077;42.716;23.344;2023-03-11T06:35:41;5.40;;;2.50;;
64667;SDS011;51077;42.716;23.344;2023-03-11T06:38:07;5.00;;;3.03;;
64667;SDS011;51077;42.716;23.344;2023-03-11T06:40:33;6.45;;;3.45;;
64667;SDS011;51077;42.716;23.344;2023-03-11T06:42:58;5.63;;;3.47;;
64667;SDS011;51077;42.716;23.344;2023-03-11T06:45:24;5.00;;;2.87;;
64667;SDS011;51077;42.716;23.344;2023-03-11T06:47:49;6.03;;;3.40;;
64667;SDS011;51077;42.716;23.344;2023-03-11T06:50:15;5.70;;;3.07;;
64667;SDS011;51077;42.716;23.344;2023-03-11T06:52:41;5.97;;;3.40;;
64667;SDS011;51077;42.716;23.344;2023-03-11T06:55:06;6.33;;;3.63;;
64667;SDS011;51077;42.716;23.344;2023-03-11T06:57:32;6.17;;;3.73;;
64667;SDS011;51077;42.716;23.344;2023-03-11T06:59:57;6.13;;;3.60;;
64667;SDS011;51077;42.716;23.344;2023-03-11T07:02:23;6.73;;;3.87;;
64667;SDS011;51077;42.716;23.344;2023-03-11T07:04:49;6.30;;;4.47;;
64667;SDS011;51077;42.716;23.344;2023-03-11T07:07:14;7.50;;;4.30;;
64667;SDS011;51077;42.716;23.344;2023-03-11T07:09:39;7.33;;;4.67;;
64667;SDS011;51077;42.716;23.344;2023-03-11T07:12:05;8.97;;;4.50;;
64667;SDS011;51077;42.716;23.344;2023-03-11T07:14:31;6.07;;;3.47;;
64667;SDS011;51077;42.716;23.344;2023-03-11T07:16:56;6.63;;;3.73;;
64667;SDS011;51077;42.716;23.344;2023-03-11T07:19:21;6.40;;;4.40;;
64667;SDS011;51077;42.716;23.344;2023-03-11T07:21:47;5.87;;;3.30;;
64667;SDS011;51077;42.716;23.344;2023-03-11T07:24:12;7.40;;;3.70;;
64667;SDS011;51077;42.716;23.344;2023-03-11T07:26:38;6.30;;;4.37;;
64667;SDS011;51077;42.716;23.344;2023-03-11T07:29:04;5.78;;;4.35;;
64667;SDS011;51077;42.716;23.344;2023-03-11T07:31:31;7.63;;;4.20;;
64667;SDS011;51077;42.716;23.344;2023-03-11T07:33:59;7.38;;;4.88;;
64667;SDS011;51077;42.716;23.344;2023-03-11T07:36:26;6.80;;;4.20;;
64667;SDS011;51077;42.716;23.344;2023-03-11T07:38:56;6.05;;;4.10;;
64667;SDS011;51077;42.716;23.344;2023-03-11T07:41:28;6.03;;;4.13;;
64667;SDS011;51077;42.716;23.344;2023-03-11T07:43:55;5.65;;;3.80;;
64667;SDS011;51077;42.716;23.344;2023-03-11T07:46:22;6.75;;;4.00;;
64667;SDS011;51077;42.716;23.344;2023-03-11T07:48:49;5.57;;;3.97;;
64667;SDS011;51077;42.716;23.344;2023-03-11T07:51:16;7.07;;;3.80;;
64667;SDS011;51077;42.716;23.344;2023-03-11T07:53:47;4.57;;;3.28;;
64667;SDS011;51077;42.716;23.344;2023-03-11T07:56:14;5.68;;;3.10;;
64667;SDS011;51077;42.716;23.344;2023-03-11T07:58:41;5.82;;;3.20;;
64667;SDS011;51077;42.716;23.344;2023-03-11T08:01:08;4.38;;;2.58;;
64667;SDS011;51077;42.716;23.344;2023-03-11T08:03:37;3.55;;;2.55;;
64667;SDS011;51077;42.716;23.344;2023-03-11T08:06:10;5.55;;;2.55;;
64667;SDS011;51077;42.716;23.344;2023-03-11T08:08:43;5.00;;;2.45;;
64667;SDS011;51077;42.716;23.344;2023-03-11T08:11:09;4.53;;;3.27;;
64667;SDS011;51077;42.716;23.344;2023-03-11T08:13:37;3.75;;;2.35;;
64667;SDS011;51077;42.716;23.344;2023-03-11T08:16:04;6.43;;;2.65;;
64667;SDS011;51077;42.716;23.344;2023-03-11T08:18:31;4.15;;;2.17;;
64667;SDS011;51077;42.716;23.344;2023-03-11T08:20:57;4.38;;;2.50;;
64667;SDS011;51077;42.716;23.344;2023-03-11T08:23:23;4.90;;;2.75;;
64667;SDS011;51077;42.716;23.344;2023-03-11T08:25:48;5.40;;;2.37;;
64667;SDS011;51077;42.716;23.344;2023-03-11T08:28:14;4.90;;;2.60;;
64667;SDS011;51077;42.716;23.344;2023-03-11T08:30:40;4.43;;;2.60;;
64667;SDS011;51077;42.716;23.344;2023-03-11T08:33:05;4.17;;;2.20;;
64667;SDS011;51077;42.716;23.344;2023-03-11T08:35:31;4.83;;;2.30;;
64667;SDS011;51077;42.716;23.344;2023-03-11T08:37:56;3.87;;;2.07;;
64667;SDS011;51077;42.716;23.344;2023-03-11T08:40:22;5.17;;;2.77;;
64667;SDS011;51077;42.716;23.344;2023-03-11T08:42:47;4.10;;;2.47;;
64667;SDS011;51077;42.716;23.344;2023-03-11T08:45:13;4.57;;;2.40;;
64667;SDS011;51077;42.716;23.344;2023-03-11T08:47:39;5.70;;;2.83;;
64667;SDS011;51077;42.716;23.344;2023-03-11T08:50:05;5.43;;;3.50;;
64667;SDS011;51077;42.716;23.344;2023-03-11T08:52:35;6.40;;;3.65;;
64667;SDS011;51077;42.716;23.344;2023-03-11T08:55:01;5.73;;;3.30;;
64667;SDS011;51077;42.716;23.344;2023-03-11T08:57:28;6.18;;;4.45;;
64667;SDS011;51077;42.716;23.344;2023-03-11T08:59:54;5.73;;;3.57;;
64667;SDS011;51077;42.716;23.344;2023-03-11T09:02:22;4.75;;;3.10;;
64667;SDS011;51077;42.716;23.344;2023-03-11T09:04:48;4.28;;;2.65;;
64667;SDS011;51077;42.716;23.344;2023-03-11T09:07:13;4.23;;;2.83;;
64667;SDS011;51077;42.716;23.344;2023-03-11T09:09:39;6.80;;;2.90;;
64667;SDS011;51077;42.716;23.344;2023-03-11T09:12:04;4.13;;;2.00;;
64667;SDS011;51077;42.716;23.344;2023-03-11T09:14:31;3.03;;;1.50;;
64667;SDS011;51077;42.716;23.344;2023-03-11T09:16:57;4.57;;;1.80;;
64667;SDS011;51077;42.716;23.344;2023-03-11T09:19:22;3.50;;;1.50;;
64667;SDS011;51077;42.716;23.344;2023-03-11T09:21:48;3.63;;;1.50;;
64667;SDS011;51077;42.716;23.344;2023-03-11T09:24:13;3.13;;;1.43;;
64667;SDS011;51077;42.716;23.344;2023-03-11T09:26:38;2.20;;;1.10;;
64667;SDS011;51077;42.716;23.344;2023-03-11T09:29:04;3.57;;;1.10;;
64667;SDS011;51077;42.716;23.344;2023-03-11T09:31:29;2.83;;;1.00;;
64667;SDS011;51077;42.716;23.344;2023-03-11T09:33:55;2.20;;;0.90;;
64667;SDS011;51077;42.716;23.344;2023-03-11T09:36:20;5.10;;;1.40;;
64667;SDS011;51077;42.716;23.344;2023-03-11T09:38:46;2.70;;;1.02;;
64667;SDS011;51077;42.716;23.344;2023-03-11T09:41:26;2.50;;;0.80;;
64667;SDS011;51077;42.716;23.344;2023-03-11T09:52:02;2.28;;;0.68;;
64667;SDS011;51077;42.716;23.344;2023-03-11T09:54:35;2.58;;;1.08;;
64667;SDS011;51077;42.716;23.344;2023-03-11T09:57:03;1.88;;;1.05;;
64667;SDS011;51077;42.716;23.344;2023-03-11T09:59:33;2.97;;;1.25;;
64667;SDS011;51077;42.716;23.344;2023-03-11T10:02:01;2.13;;;1.10;;
64667;SDS011;51077;42.716;23.344;2023-03-11T10:05:12;2.42;;;1.00;;
64667;SDS011;51077;42.716;23.344;2023-03-11T10:07:40;2.55;;;1.13;;
64667;SDS011;51077;42.716;23.344;2023-03-11T10:10:12;2.90;;;0.98;;
64667;SDS011;51077;42.716;23.344;2023-03-11T10:15:50;4.28;;;1.30;;
64667;SDS011;51077;42.716;23.344;2023-03-11T10:27:19;3.55;;;1.73;;
64667;SDS011;51077;42.716;23.344;2023-03-11T10:30:05;3.47;;;1.77;;
64667;SDS011;51077;42.716;23.344;2023-03-11T10:32:45;3.60;;;1.80;;
64667;SDS011;51077;42.716;23.344;2023-03-11T10:35:22;3.92;;;1.63;;
64667;SDS011;51077;42.716;23.344;2023-03-11T10:37:53;5.03;;;1.80;;
64667;SDS011;51077;42.716;23.344;2023-03-11T10:40:42;2.83;;;1.30;;
64667;SDS011;51077;42.716;23.344;2023-03-11T10:43:10;4.93;;;1.42;;
64667;SDS011;51077;42.716;23.344;2023-03-11T10:45:40;4.50;;;1.60;;
64667;SDS011;51077;42.716;23.344;2023-03-11T10:48:09;4.78;;;2.60;;
64667;SDS011;51077;42.716;23.344;2023-03-11T10:50:36;6.85;;;2.30;;
64667;SDS011;51077;42.716;23.344;2023-03-11T10:53:15;4.47;;;1.75;;
64667;SDS011;51077;42.716;23.344;2023-03-11T10:55:52;3.25;;;1.65;;
64667;SDS011;51077;42.716;23.344;2023-03-11T10:58:20;3.17;;;1.30;;
64667;SDS011;51077;42.716;23.344;2023-03-11T11:01:04;3.75;;;1.25;;
64667;SDS011;51077;42.716;23.344;2023-03-11T11:03:40;6.25;;;1.70;;
64667;SDS011;51077;42.716;23.344;2023-03-11T11:06:09;4.63;;;1.48;;
64667;SDS011;51077;42.716;23.344;2023-03-11T11:08:42;5.70;;;1.40;;
64667;SDS011;51077;42.716;23.344;2023-03-11T11:11:20;4.47;;;1.50;;
64667;SDS011;51077;42.716;23.344;2023-03-11T11:14:05;5.20;;;1.40;;
64667;SDS011;51077;42.716;23.344;2023-03-11T11:16:32;5.10;;;1.40;;
64667;SDS011;51077;42.716;23.344;2023-03-11T11:19:09;6.32;;;1.20;;
64667;SDS011;51077;42.716;23.344;2023-03-11T11:21:39;4.82;;;1.23;;
64667;SDS011;51077;42.716;23.344;2023-03-11T11:24:20;7.00;;;1.70;;
64667;SDS011;51077;42.716;23.344;2023-03-11T11:29:41;4.40;;;1.83;;
64667;SDS011;51077;42.716;23.344;2023-03-11T11:34:52;3.72;;;1.40;;
64667;SDS011;51077;42.716;23.344;2023-03-11T11:37:24;2.88;;;1.38;;
64667;SDS011;51077;42.716;23.344;2023-03-11T11:39:57;4.10;;;1.42;;
64667;SDS011;51077;42.716;23.344;2023-03-11T11:42:25;3.95;;;1.70;;
64667;SDS011;51077;42.716;23.344;2023-03-11T11:47:42;3.97;;;1.65;;
64667;SDS011;51077;42.716;23.344;2023-03-11T11:50:17;3.30;;;1.60;;
64667;SDS011;51077;42.716;23.344;2023-03-11T11:53:01;4.35;;;1.75;;
64667;SDS011;51077;42.716;23.344;2023-03-11T11:55:49;3.75;;;1.50;;
64667;SDS011;51077;42.716;23.344;2023-03-11T11:58:19;3.22;;;1.60;;
64667;SDS011;51077;42.716;23.344;2023-03-11T12:06:26;3.40;;;1.30;;
64667;SDS011;51077;42.716;23.344;2023-03-11T12:12:07;5.03;;;1.55;;
64667;SDS011;51077;42.716;23.344;2023-03-11T12:17:49;4.32;;;1.50;;
64667;SDS011;51077;42.716;23.344;2023-03-11T12:31:10;3.22;;;1.55;;
64667;SDS011;51077;42.716;23.344;2023-03-11T12:33:38;3.88;;;1.30;;
64667;SDS011;51077;42.716;23.344;2023-03-11T12:36:04;3.25;;;1.30;;
64667;SDS011;51077;42.716;23.344;2023-03-11T12:38:35;5.00;;;1.80;;
64667;SDS011;51077;42.716;23.344;2023-03-11T12:46:10;3.58;;;0.90;;
64667;SDS011;51077;42.716;23.344;2023-03-11T12:53:54;3.13;;;0.80;;
64667;SDS011;51077;42.716;23.344;2023-03-11T13:16:38;2.88;;;0.90;;
64667;SDS011;51077;42.716;23.344;2023-03-11T13:21:56;2.67;;;1.17;;
64667;SDS011;51077;42.716;23.344;2023-03-11T13:32:50;2.50;;;1.00;;
64667;SDS011;51077;42.716;23.344;2023-03-11T13:41:16;4.18;;;1.15;;
64667;SDS011;51077;42.716;23.344;2023-03-11T13:43:47;1.75;;;0.93;;
64667;SDS011;51077;42.716;23.344;2023-03-11T13:46:21;2.72;;;1.38;;
64667;SDS011;51077;42.716;23.344;2023-03-11T13:48:48;2.85;;;1.50;;
64667;SDS011;51077;42.716;23.344;2023-03-11T13:51:21;4.53;;;1.13;;
64667;SDS011;51077;42.716;23.344;2023-03-11T13:54:21;3.38;;;0.98;;
64667;SDS011;51077;42.716;23.344;2023-03-11T13:57:15;3.28;;;0.98;;
64667;SDS011;51077;42.716;23.344;2023-03-11T13:59:52;2.50;;;1.10;;
64667;SDS011;51077;42.716;23.344;2023-03-11T14:02:21;3.33;;;1.10;;
64667;SDS011;51077;42.716;23.344;2023-03-11T14:08:19;2.35;;;0.80;;
64667;SDS011;51077;42.716;23.344;2023-03-11T14:13:32;1.60;;;0.70;;
64667;SDS011;51077;42.716;23.344;2023-03-11T14:16:07;3.42;;;1.00;;
64667;SDS011;51077;42.716;23.344;2023-03-11T14:18:39;2.17;;;0.80;;
64667;SDS011;51077;42.716;23.344;2023-03-11T14:21:11;2.38;;;0.80;;
64667;SDS011;51077;42.716;23.344;2023-03-11T14:23:43;3.60;;;1.08;;
64667;SDS011;51077;42.716;23.344;2023-03-11T14:26:12;2.42;;;0.70;;
64667;SDS011;51077;42.716;23.344;2023-03-11T14:28:41;2.92;;;0.75;;
64667;SDS011;51077;42.716;23.344;2023-03-11T14:31:20;2.30;;;0.98;;
64667;SDS011;51077;42.716;23.344;2023-03-11T14:33:59;3.90;;;1.50;;
64667;SDS011;51077;42.716;23.344;2023-03-11T14:36:41;2.28;;;1.08;;
64667;SDS011;51077;42.716;23.344;2023-03-11T14:42:10;3.00;;;1.20;;
64667;SDS011;51077;42.716;23.344;2023-03-11T14:44:38;3.42;;;1.42;;
64667;SDS011;51077;42.716;23.344;2023-03-11T14:49:47;4.85;;;1.40;;
64667;SDS011;51077;42.716;23.344;2023-03-11T14:52:27;2.88;;;1.05;;
64667;SDS011;51077;42.716;23.344;2023-03-11T14:54:58;3.20;;;1.10;;
64667;SDS011;51077;42.716;23.344;2023-03-11T15:00:35;3.70;;;1.40;;
64667;SDS011;51077;42.716;23.344;2023-03-11T15:05:47;4.10;;;1.60;;
64667;SDS011;51077;42.716;23.344;2023-03-11T15:08:19;4.03;;;1.65;;
64667;SDS011;51077;42.716;23.344;2023-03-11T15:11:06;3.80;;;1.58;;
64667;SDS011;51077;42.716;23.344;2023-03-11T15:13:43;2.40;;;1.40;;
64667;SDS011;51077;42.716;23.344;2023-03-11T15:19:00;4.45;;;1.98;;
64667;SDS011;51077;42.716;23.344;2023-03-11T15:21:45;4.15;;;2.20;;
64667;SDS011;51077;42.716;23.344;2023-03-11T15:24:14;4.85;;;2.75;;
64667;SDS011;51077;42.716;23.344;2023-03-11T15:26:51;4.82;;;2.25;;
64667;SDS011;51077;42.716;23.344;2023-03-11T15:29:21;7.38;;;2.30;;
64667;SDS011;51077;42.716;23.344;2023-03-11T15:31:48;5.00;;;2.50;;
64667;SDS011;51077;42.716;23.344;2023-03-11T15:36:44;8.38;;;2.28;;
64667;SDS011;51077;42.716;23.344;2023-03-11T15:46:56;6.30;;;3.13;;
64667;SDS011;51077;42.716;23.344;2023-03-11T15:49:25;7.03;;;3.17;;
64667;SDS011;51077;42.716;23.344;2023-03-11T15:51:51;7.78;;;3.30;;
64667;SDS011;51077;42.716;23.344;2023-03-11T15:54:16;5.33;;;2.77;;
64667;SDS011;51077;42.716;23.344;2023-03-11T15:56:42;9.10;;;3.97;;
64667;SDS011;51077;42.716;23.344;2023-03-11T15:59:13;8.40;;;4.53;;
64667;SDS011;51077;42.716;23.344;2023-03-11T16:01:40;23.92;;;12.80;;
64667;SDS011;51077;42.716;23.344;2023-03-11T16:04:14;17.53;;;10.77;;
64667;SDS011;51077;42.716;23.344;2023-03-11T16:06:44;21.15;;;13.45;;
64667;SDS011;51077;42.716;23.344;2023-03-11T16:09:10;25.65;;;15.52;;
64667;SDS011;51077;42.716;23.344;2023-03-11T16:11:37;22.63;;;15.75;;
64667;SDS011;51077;42.716;23.344;2023-03-11T16:14:03;20.90;;;14.32;;
64667;SDS011;51077;42.716;23.344;2023-03-11T16:16:29;22.30;;;14.30;;
64667;SDS011;51077;42.716;23.344;2023-03-11T16:18:55;21.93;;;14.37;;
64667;SDS011;51077;42.716;23.344;2023-03-11T16:21:20;20.30;;;14.17;;
64667;SDS011;51077;42.716;23.344;2023-03-11T16:23:49;20.90;;;13.73;;
64667;SDS011;51077;42.716;23.344;2023-03-11T16:26:15;20.00;;;12.57;;
64667;SDS011;51077;42.716;23.344;2023-03-11T16:28:40;17.93;;;13.10;;
64667;SDS011;51077;42.716;23.344;2023-03-11T16:31:06;19.50;;;11.90;;
64667;SDS011;51077;42.716;23.344;2023-03-11T16:33:35;15.70;;;10.32;;
64667;SDS011;51077;42.716;23.344;2023-03-11T16:36:00;15.63;;;9.77;;
64667;SDS011;51077;42.716;23.344;2023-03-11T16:38:27;15.55;;;9.07;;
64667;SDS011;51077;42.716;23.344;2023-03-11T16:40:54;13.93;;;8.63;;
64667;SDS011;51077;42.716;23.344;2023-03-11T16:43:21;13.18;;;7.97;;
64667;SDS011;51077;42.716;23.344;2023-03-11T16:45:47;12.77;;;7.87;;
64667;SDS011;51077;42.716;23.344;2023-03-11T16:48:12;11.43;;;7.20;;
64667;SDS011;51077;42.716;23.344;2023-03-11T16:50:38;9.87;;;6.30;;
64667;SDS011;51077;42.716;23.344;2023-03-11T16:53:03;11.83;;;7.10;;
64667;SDS011;51077;42.716;23.344;2023-03-11T16:55:29;8.97;;;6.07;;
64667;SDS011;51077;42.716;23.344;2023-03-11T16:57:54;8.80;;;5.27;;
64667;SDS011;51077;42.716;23.344;2023-03-11T17:00:21;12.60;;;6.00;;